createdAt,value
2018-02-19T00:01:26.295Z,15.20
2018-02-19T00:03:53.882Z,18.40
2018-02-19T00:06:21.493Z,18.47
2018-02-19T00:08:49.870Z,17.27
2018-02-19T00:11:17.450Z,18.60
2018-02-19T00:13:45.119Z,17.43
2018-02-19T00:16:12.696Z,16.87
2018-02-19T00:18:40.305Z,16.00
2018-02-19T00:21:07.906Z,15.43
2018-02-19T00:23:35.481Z,17.47
2018-02-19T00:26:03.083Z,18.23
2018-02-19T00:28:30.666Z,15.70
2018-02-19T00:30:58.278Z,19.57
2018-02-19T00:33:25.878Z,17.83
2018-02-19T00:35:53.456Z,16.67
2018-02-19T00:38:21.062Z,15.73
2018-02-19T00:40:48.641Z,20.87
2018-02-19T00:43:16.252Z,15.07
2018-02-19T00:45:43.871Z,14.77
2018-02-19T00:48:11.451Z,19.13
2018-02-19T00:50:39.054Z,16.70
2018-02-19T00:53:06.631Z,17.33
2018-02-19T00:55:34.237Z,18.33
2018-02-19T00:58:02.606Z,15.97
2018-02-19T01:00:30.178Z,15.07
2018-02-19T01:02:57.782Z,15.60
2018-02-19T01:05:25.358Z,14.53
2018-02-19T01:07:52.963Z,16.87
2018-02-19T01:10:20.569Z,15.00
2018-02-19T01:12:48.910Z,15.60
2018-02-19T01:15:16.518Z,16.90
2018-02-19T01:17:44.099Z,17.00
2018-02-19T01:20:11.706Z,19.33
2018-02-19T01:22:39.311Z,15.00
2018-02-19T01:25:07.654Z,17.20
2018-02-19T01:27:35.271Z,14.60
2018-02-19T01:30:02.863Z,14.93
2018-02-19T01:32:30.468Z,14.60
2018-02-19T01:34:58.838Z,15.63
2018-02-19T01:37:26.418Z,15.27
2018-02-19T01:39:54.022Z,17.40
2018-02-19T01:42:21.599Z,14.23
2018-02-19T01:44:49.202Z,17.70
2018-02-19T01:47:17.570Z,16.60
2018-02-19T01:49:56.922Z,15.07
2018-02-19T01:52:24.535Z,15.10
2018-02-19T01:54:52.113Z,16.37
2018-02-19T01:57:19.719Z,14.30
2018-02-19T01:59:47.299Z,14.37
2018-02-19T02:02:14.907Z,15.87
2018-02-19T02:04:43.278Z,15.67
2018-02-19T02:07:10.855Z,14.20
2018-02-19T02:09:38.464Z,15.37
2018-02-19T02:12:06.039Z,14.20
2018-02-19T02:14:33.646Z,17.57
2018-02-19T02:17:01.252Z,15.13
2018-02-19T02:19:28.836Z,14.33
2018-02-19T02:21:56.466Z,14.67
2018-02-19T02:24:24.046Z,17.37
2018-02-19T02:26:51.651Z,16.60
2018-02-19T02:29:19.254Z,17.07
2018-02-19T02:31:47.600Z,13.97
2018-02-19T02:34:15.210Z,15.43
2018-02-19T02:36:42.788Z,16.13
2018-02-19T02:39:10.394Z,15.30
2018-02-19T02:41:37.999Z,17.80
2018-02-19T02:44:06.349Z,17.17
2018-02-19T02:46:33.971Z,16.73
2018-02-19T02:49:01.566Z,14.77
2018-02-19T02:51:29.939Z,16.13
2018-02-19T02:53:57.547Z,13.37
2018-02-19T02:56:25.122Z,13.57
2018-02-19T02:58:52.733Z,13.97
2018-02-19T03:01:21.082Z,13.77
2018-02-19T03:03:49.451Z,12.07
2018-02-19T03:06:17.054Z,16.03
2018-02-19T03:08:44.626Z,15.57
2018-02-19T03:11:12.232Z,17.00
2018-02-19T03:13:39.814Z,18.90
2018-02-19T03:16:07.422Z,17.23
2018-02-19T03:18:35.026Z,16.70
2018-02-19T03:21:02.605Z,14.10
2018-02-19T03:23:30.206Z,14.47
2018-02-19T03:25:57.802Z,16.40
2018-02-19T03:28:25.405Z,15.47
2018-02-19T03:30:53.011Z,14.17
2018-02-19T03:33:20.595Z,15.30
2018-02-19T03:35:48.202Z,20.57
2018-02-19T03:38:15.782Z,16.67
2018-02-19T03:40:43.391Z,15.17
2018-02-19T03:43:11.323Z,13.10
2018-02-19T03:45:38.905Z,15.40
2018-02-19T03:48:06.509Z,16.80
2018-02-19T03:50:34.850Z,16.43
2018-02-19T03:53:02.455Z,14.57
2018-02-19T03:55:30.063Z,13.53
2018-02-19T03:57:57.650Z,14.10
2018-02-19T04:00:25.250Z,15.50
2018-02-19T04:02:53.586Z,12.57
2018-02-19T04:05:21.181Z,16.57
2018-02-19T04:07:48.786Z,13.67
2018-02-19T04:10:16.369Z,14.40
2018-02-19T04:12:43.970Z,18.10
2018-02-19T04:15:11.561Z,14.87
2018-02-19T04:17:39.162Z,13.73
2018-02-19T04:20:07.539Z,14.20
2018-02-19T04:22:35.114Z,13.80
2018-02-19T04:25:02.719Z,12.40
2018-02-19T04:27:30.293Z,12.50
2018-02-19T04:29:57.902Z,12.10
2018-02-19T04:32:26.273Z,12.63
2018-02-19T04:34:53.846Z,15.37
2018-02-19T04:37:21.445Z,13.13
2018-02-19T04:39:49.791Z,14.33
2018-02-19T04:42:18.162Z,14.67
2018-02-19T04:44:46.586Z,14.13
2018-02-19T04:47:14.187Z,13.93
2018-02-19T04:49:42.558Z,16.07
2018-02-19T04:52:10.136Z,14.83
2018-02-19T04:54:37.711Z,13.90
2018-02-19T04:57:05.318Z,13.70
2018-02-19T04:59:32.921Z,13.27
2018-02-19T05:02:01.283Z,12.57
2018-02-19T05:04:28.890Z,16.07
2018-02-19T05:06:56.475Z,14.30
2018-02-19T05:09:24.076Z,14.20
2018-02-19T05:11:52.450Z,14.87
2018-02-19T05:14:20.027Z,13.07
2018-02-19T05:16:47.626Z,13.30
2018-02-19T05:19:15.210Z,12.97
2018-02-19T05:21:42.813Z,13.90
2018-02-19T05:24:10.418Z,13.90
2018-02-19T05:26:37.995Z,13.37
2018-02-19T05:29:05.638Z,15.47
2018-02-19T05:31:33.205Z,15.00
2018-02-19T05:34:01.579Z,13.07
2018-02-19T05:36:29.182Z,14.40
2018-02-19T05:38:57.527Z,12.90
2018-02-19T05:41:25.129Z,13.57
2018-02-19T05:43:52.705Z,14.83
2018-02-19T05:46:21.179Z,12.97
2018-02-19T05:48:48.782Z,13.50
2018-02-19T05:51:17.122Z,14.97
2018-02-19T05:53:44.726Z,14.07
2018-02-19T05:56:12.304Z,12.70
2018-02-19T05:58:39.917Z,14.57
2018-02-19T06:01:07.520Z,14.07
2018-02-19T06:03:35.330Z,14.73
2018-02-19T06:06:02.939Z,16.43
2018-02-19T06:08:30.514Z,16.20
2018-02-19T06:10:58.114Z,14.90
2018-02-19T06:13:25.719Z,14.87
2018-02-19T06:15:53.302Z,13.60
2018-02-19T06:18:21.692Z,15.40
2018-02-19T06:20:51.175Z,13.47
2018-02-19T06:23:18.783Z,15.03
2018-02-19T06:25:46.462Z,15.07
2018-02-19T06:28:14.797Z,14.07
2018-02-19T06:30:42.393Z,13.17
2018-02-19T06:33:10.011Z,13.67
2018-02-19T06:35:38.362Z,14.70
2018-02-19T06:38:06.318Z,14.33
2018-02-19T06:40:33.894Z,15.07
2018-02-19T06:43:01.498Z,14.67
2018-02-19T06:45:29.078Z,13.60
2018-02-19T06:47:56.686Z,13.27
2018-02-19T06:50:24.286Z,13.37
2018-02-19T06:52:51.862Z,13.90
2018-02-19T06:55:19.462Z,14.37
2018-02-19T06:57:47.041Z,13.40
2018-02-19T07:00:14.649Z,13.90
2018-02-19T07:02:42.251Z,14.17
2018-02-19T07:05:09.830Z,15.27
2018-02-19T07:07:37.449Z,12.53
2018-02-19T07:10:05.790Z,13.40
2018-02-19T07:12:33.390Z,12.60
2018-02-19T07:15:00.991Z,13.60
2018-02-19T07:17:29.333Z,12.87
2018-02-19T07:31:35.024Z,15.27
2018-02-19T07:34:02.602Z,13.07
2018-02-19T07:36:30.206Z,13.33
2018-02-19T07:38:57.811Z,16.60
2018-02-19T07:41:25.397Z,13.87
2018-02-19T07:43:53.002Z,18.23
2018-02-19T07:46:20.582Z,15.27
2018-02-19T07:48:48.186Z,13.60
2018-02-19T07:51:16.557Z,17.30
2018-02-19T07:53:44.135Z,15.83
2018-02-19T07:56:11.794Z,15.33
2018-02-19T07:58:39.341Z,16.53
2018-02-19T08:01:06.954Z,14.03
2018-02-19T08:03:34.563Z,16.70
2018-02-19T08:06:02.192Z,14.63
2018-02-19T08:08:29.771Z,14.43
2018-02-19T08:10:57.360Z,12.33
2018-02-19T08:13:25.739Z,13.50
2018-02-19T08:15:53.353Z,16.30
2018-02-19T08:18:20.955Z,14.27
2018-02-19T08:20:48.632Z,13.83
2018-02-19T08:23:16.348Z,12.50
2018-02-19T08:25:44.693Z,10.63
2018-02-19T08:28:12.302Z,11.43
2018-02-19T08:30:40.642Z,11.33
2018-02-19T08:33:11.422Z,12.27
2018-02-19T08:35:39.292Z,12.40
2018-02-19T08:38:06.916Z,12.77
2018-02-19T08:40:35.034Z,11.00
2018-02-19T08:43:02.626Z,10.57
2018-02-19T08:45:30.226Z,10.10
2018-02-19T08:47:58.591Z,11.60
2018-02-19T08:50:27.159Z,12.40
2018-02-19T08:52:57.024Z,9.87
2018-02-19T08:55:24.590Z,10.27
2018-02-19T08:57:52.438Z,10.80
2018-02-19T09:11:54.866Z,9.17
2018-02-19T09:14:22.465Z,10.10
2018-02-19T09:16:50.066Z,8.67
2018-02-19T09:19:18.412Z,10.23
2018-02-19T09:21:46.010Z,11.33
2018-02-19T09:24:13.577Z,9.60
2018-02-19T09:26:41.179Z,10.07
2018-02-19T09:29:09.549Z,11.40
2018-02-19T09:31:37.127Z,10.57
2018-02-19T09:34:05.490Z,9.43
2018-02-19T09:36:33.060Z,10.27
2018-02-19T09:39:00.662Z,10.83
2018-02-19T09:41:28.257Z,9.67
2018-02-19T09:43:56.594Z,9.70
2018-02-19T09:46:24.190Z,9.47
2018-02-19T09:48:51.766Z,12.73
2018-02-19T09:51:19.375Z,10.00
2018-02-19T09:53:46.974Z,10.93
2018-02-19T09:56:14.769Z,8.50
2018-02-19T09:58:42.371Z,10.40
2018-02-19T10:01:10.066Z,11.73
2018-02-19T10:03:38.422Z,9.67
2018-02-19T10:06:06.026Z,10.63
2018-02-19T10:08:33.594Z,9.37
2018-02-19T10:11:01.954Z,9.90
2018-02-19T10:13:29.517Z,9.67
2018-02-19T10:15:57.115Z,9.47
2018-02-19T10:18:24.706Z,9.90
2018-02-19T10:20:53.045Z,10.33
2018-02-19T10:23:20.643Z,9.73
2018-02-19T10:25:48.219Z,10.37
2018-02-19T10:28:15.835Z,10.43
2018-02-19T10:30:43.435Z,9.40
2018-02-19T10:33:11.126Z,9.30
2018-02-19T10:35:38.732Z,12.60
2018-02-19T10:38:07.075Z,10.23
2018-02-19T10:40:34.677Z,8.47
2018-02-19T10:43:02.280Z,11.93
2018-02-19T10:45:29.854Z,9.80
2018-02-19T10:47:57.450Z,9.47
2018-02-19T10:50:25.300Z,10.20
2018-02-19T10:52:52.906Z,11.87
2018-02-19T10:55:20.507Z,9.97
2018-02-19T10:57:48.078Z,11.00
2018-02-19T11:00:15.690Z,9.40
2018-02-19T11:02:44.031Z,10.63
2018-02-19T11:05:11.698Z,8.23
2018-02-19T11:07:40.058Z,9.60
2018-02-19T11:10:07.631Z,9.80
2018-02-19T11:12:35.243Z,8.13
2018-02-19T11:15:02.896Z,10.77
2018-02-19T11:17:30.596Z,10.83
2018-02-19T11:19:58.269Z,10.13
2018-02-19T11:22:25.920Z,9.20
2018-02-19T11:24:53.575Z,9.87
2018-02-19T11:27:21.170Z,8.77
2018-02-19T11:29:48.849Z,9.90
2018-02-19T11:32:16.520Z,9.50
2018-02-19T11:34:44.152Z,8.67
2018-02-19T11:37:11.826Z,9.73
2018-02-19T11:39:40.245Z,11.77
2018-02-19T11:42:07.923Z,9.40
2018-02-19T11:44:35.620Z,12.47
2018-02-19T11:47:03.284Z,9.00
2018-02-19T11:49:30.931Z,9.43
2018-02-19T11:51:58.531Z,10.60
2018-02-19T11:54:26.200Z,9.83
2018-02-19T11:56:53.875Z,9.27
2018-02-19T11:59:21.523Z,11.20
2018-02-19T12:01:49.188Z,11.00
2018-02-19T12:04:17.596Z,8.53
2018-02-19T12:06:45.254Z,20.60
2018-02-19T12:09:13.680Z,36.63
2018-02-19T12:11:41.335Z,17.87
2018-02-19T12:14:08.991Z,11.43
2018-02-19T12:16:37.387Z,11.40
2018-02-19T12:19:05.036Z,11.33
2018-02-19T12:21:32.698Z,10.10
2018-02-19T12:24:00.339Z,12.63
2018-02-19T12:26:27.999Z,11.13
2018-02-19T12:28:55.627Z,14.63
2018-02-19T12:31:23.287Z,11.80
2018-02-19T12:33:51.153Z,11.83
2018-02-19T12:36:18.778Z,10.97
2018-02-19T12:38:47.213Z,10.50
2018-02-19T12:41:14.832Z,12.07
2018-02-19T12:43:43.276Z,11.83
2018-02-19T12:46:10.934Z,10.97
2018-02-19T12:48:38.603Z,11.20
2018-02-19T12:51:06.275Z,9.53
2018-02-19T12:53:33.902Z,10.93
2018-02-19T12:56:01.587Z,12.03
2018-02-19T12:58:29.285Z,11.47
2018-02-19T13:00:57.690Z,9.43
2018-02-19T13:03:25.360Z,11.47
2018-02-19T13:05:53.788Z,11.50
2018-02-19T13:08:21.414Z,8.97
2018-02-19T13:10:49.815Z,10.53
2018-02-19T13:13:18.239Z,13.33
2018-02-19T13:15:45.887Z,13.30
2018-02-19T13:18:13.560Z,13.60
2018-02-19T13:20:41.952Z,13.93
2018-02-19T13:23:09.631Z,12.30
2018-02-19T13:25:37.416Z,10.40
2018-02-19T13:28:05.023Z,11.93
2018-02-19T13:33:41.195Z,10.60
2018-02-19T13:36:08.856Z,9.60
2018-02-19T13:38:37.287Z,9.63
2018-02-19T13:41:05.024Z,9.37
2018-02-19T13:43:35.279Z,11.50
2018-02-19T13:46:03.012Z,10.97
2018-02-19T13:48:30.771Z,11.60
2018-02-19T13:50:58.660Z,12.50
2018-02-19T13:53:26.400Z,9.97
2018-02-19T13:55:54.072Z,11.57
2018-02-19T13:58:22.914Z,11.40
2018-02-19T14:00:50.568Z,13.50
2018-02-19T14:03:18.339Z,13.67
2018-02-19T14:05:46.024Z,11.20
2018-02-19T14:08:13.675Z,10.93
2018-02-19T14:10:41.507Z,12.27
2018-02-19T14:13:09.147Z,10.33
2018-02-19T14:15:36.784Z,14.40
2018-02-19T14:18:04.496Z,10.27
2018-02-19T14:20:32.156Z,10.70
2018-02-19T14:23:00.080Z,11.80
2018-02-19T14:25:27.785Z,9.80
2018-02-19T14:27:55.500Z,10.63
2018-02-19T14:30:23.321Z,11.67
2018-02-19T14:41:43.180Z,12.13
2018-02-19T14:44:10.833Z,13.57
2018-02-19T14:46:38.481Z,10.57
2018-02-19T14:49:06.892Z,9.90
2018-02-19T14:51:34.541Z,9.90
2018-02-19T14:54:02.955Z,10.00
2018-02-19T14:56:30.576Z,10.87
2018-02-19T14:58:58.248Z,9.83
2018-02-19T15:01:25.931Z,10.60
2018-02-19T15:03:53.600Z,11.40
2018-02-19T15:06:21.256Z,11.23
2018-02-19T15:08:48.882Z,10.47
2018-02-19T15:11:17.310Z,8.77
2018-02-19T15:16:57.509Z,9.20
2018-02-19T15:22:22.132Z,13.03
2018-02-19T15:24:54.719Z,11.97
2018-02-19T15:27:30.524Z,10.63
2018-02-19T15:29:58.231Z,11.67
2018-02-19T15:32:31.777Z,10.27
2018-02-19T15:38:09.255Z,12.67
2018-02-19T15:40:36.891Z,11.40
2018-02-19T15:43:04.592Z,10.73
2018-02-19T15:45:32.220Z,13.53
2018-02-19T15:48:00.648Z,10.30
2018-02-19T15:50:28.291Z,13.17
2018-02-19T15:52:56.699Z,12.87
2018-02-19T15:55:24.383Z,13.17
2018-02-19T15:57:52.090Z,12.27
2018-02-19T16:00:19.780Z,10.57
2018-02-19T16:02:47.460Z,12.90
2018-02-19T16:05:15.087Z,11.57
2018-02-19T16:07:42.805Z,10.83
2018-02-19T16:10:10.416Z,11.83
2018-02-19T16:12:38.836Z,14.40
2018-02-19T16:15:06.484Z,11.83
2018-02-19T16:17:34.131Z,12.43
2018-02-19T16:20:01.828Z,13.30
2018-02-19T16:22:30.227Z,13.40
2018-02-19T16:24:57.896Z,15.13
2018-02-19T16:27:26.329Z,15.77
2018-02-19T16:29:53.971Z,12.50
2018-02-19T16:32:22.060Z,14.20
2018-02-19T16:34:49.663Z,12.87
2018-02-19T16:37:17.306Z,15.97
2018-02-19T16:39:44.935Z,11.83
2018-02-19T16:42:12.548Z,16.20
2018-02-19T16:44:40.227Z,12.70
2018-02-19T16:47:07.907Z,13.80
2018-02-19T16:49:35.578Z,12.30
2018-02-19T16:52:03.250Z,15.00
2018-02-19T16:54:30.991Z,14.63
2018-02-19T16:56:58.643Z,15.10
2018-02-19T16:59:26.755Z,14.80
2018-02-19T17:01:54.398Z,15.20
2018-02-19T17:04:22.080Z,16.30
2018-02-19T17:06:50.474Z,18.30
2018-02-19T17:09:18.107Z,15.83
2018-02-19T17:11:45.776Z,15.53
2018-02-19T17:14:13.405Z,14.67
2018-02-19T17:16:41.079Z,17.33
2018-02-19T17:22:13.250Z,17.80
2018-02-19T17:24:40.907Z,17.93
2018-02-19T17:27:08.580Z,18.50
2018-02-19T17:29:36.227Z,15.40
2018-02-19T17:32:04.671Z,17.37
2018-02-19T17:34:32.319Z,16.07
2018-02-19T17:37:00.830Z,17.60
2018-02-19T17:39:29.349Z,16.40
2018-02-19T17:41:57.040Z,16.57
2018-02-19T17:44:24.696Z,17.73
2018-02-19T17:46:52.365Z,18.57
2018-02-19T17:49:20.036Z,16.67
2018-02-19T17:51:47.690Z,19.13
2018-02-19T17:54:15.348Z,17.27
2018-02-19T17:56:43.800Z,18.33
2018-02-19T17:59:11.420Z,21.03
2018-02-19T18:01:39.843Z,18.03
2018-02-19T18:04:07.508Z,20.07
2018-02-19T18:06:35.131Z,19.37
2018-02-19T18:09:07.071Z,20.87
2018-02-19T18:11:34.723Z,17.83
2018-02-19T18:14:02.352Z,17.30
2018-02-19T18:16:32.084Z,17.43
2018-02-19T18:18:59.723Z,18.30
2018-02-19T18:21:27.374Z,19.43
2018-02-19T18:23:55.079Z,19.80
2018-02-19T18:26:22.739Z,19.50
2018-02-19T18:28:50.391Z,20.23
2018-02-19T18:31:18.105Z,22.70
2018-02-19T18:33:45.749Z,20.07
2018-02-19T18:36:13.415Z,20.90
2018-02-19T18:38:41.080Z,19.07
2018-02-19T18:41:08.800Z,17.73
2018-02-19T18:43:36.487Z,18.97
2018-02-19T18:46:04.936Z,18.87
2018-02-19T18:48:32.575Z,17.50
2018-02-19T18:51:01.076Z,18.70
2018-02-19T18:53:29.488Z,18.57
2018-02-19T18:55:57.147Z,17.33
2018-02-19T18:58:25.553Z,18.57
2018-02-19T19:00:53.176Z,19.10
2018-02-19T19:03:20.855Z,19.43
2018-02-19T19:05:48.504Z,20.03
2018-02-19T19:08:27.982Z,20.13
2018-02-19T19:10:55.659Z,20.00
2018-02-19T19:13:23.270Z,19.77
2018-02-19T19:15:51.675Z,20.63
2018-02-19T19:18:19.328Z,20.77
2018-02-19T19:20:47.758Z,24.37
2018-02-19T19:23:15.460Z,20.20
2018-02-19T19:25:43.118Z,19.73
2018-02-19T19:28:10.784Z,20.30
2018-02-19T19:30:38.425Z,19.83
2018-02-19T19:33:06.880Z,19.93
2018-02-19T19:35:34.539Z,19.97
2018-02-19T19:38:02.252Z,17.93
2018-02-19T19:40:30.710Z,19.40
2018-02-19T19:42:58.541Z,21.93
2018-02-19T19:45:26.985Z,21.00
2018-02-19T19:47:54.776Z,21.77
2018-02-19T19:50:22.429Z,20.87
2018-02-19T19:52:50.129Z,22.30
2018-02-19T19:55:17.784Z,21.00
2018-02-19T19:57:45.452Z,22.00
2018-02-19T20:00:13.107Z,19.07
2018-02-19T20:02:40.791Z,19.57
2018-02-19T20:05:08.468Z,22.13
2018-02-19T20:07:36.182Z,19.93
2018-02-19T20:10:03.878Z,19.50
2018-02-19T20:12:32.252Z,17.90
2018-02-19T20:14:59.920Z,19.27
2018-02-19T20:17:27.560Z,18.60
2018-02-19T20:19:55.203Z,23.13
2018-02-19T20:22:22.939Z,20.20
2018-02-19T20:24:50.634Z,19.83
2018-02-19T20:33:06.428Z,21.70
2018-02-19T20:35:34.142Z,20.83
2018-02-19T20:38:01.755Z,21.60
2018-02-19T20:40:30.168Z,19.60
2018-02-19T20:42:57.807Z,19.83
2018-02-19T20:45:25.441Z,22.13
2018-02-19T20:47:53.115Z,21.00
2018-02-19T20:50:20.823Z,21.27
2018-02-19T20:52:48.472Z,24.00
2018-02-19T20:55:16.136Z,22.50
2018-02-19T20:57:43.786Z,20.47
2018-02-19T21:00:11.424Z,19.77
2018-02-19T21:02:41.201Z,20.73
2018-02-19T21:05:08.839Z,19.73
2018-02-19T21:07:37.272Z,21.07
2018-02-19T21:10:25.658Z,21.37
2018-02-19T21:12:53.475Z,22.37
2018-02-19T21:15:36.803Z,18.43
2018-02-19T21:18:04.484Z,22.27
2018-02-19T21:20:32.183Z,18.70
2018-02-19T21:23:00.626Z,21.03
2018-02-19T21:25:28.252Z,20.17
2018-02-19T21:28:17.035Z,18.97
2018-02-19T21:30:44.677Z,20.43
2018-02-19T21:33:12.288Z,20.87
2018-02-19T21:35:39.932Z,19.30
2018-02-19T21:38:08.331Z,21.10
2018-02-19T21:40:36.751Z,21.57
2018-02-19T21:43:05.220Z,22.17
2018-02-19T21:45:33.646Z,20.47
2018-02-19T21:48:01.327Z,21.77
2018-02-19T21:50:28.979Z,21.30
2018-02-19T21:52:56.644Z,21.40
2018-02-19T21:55:24.281Z,20.13
2018-02-19T21:57:51.923Z,19.60
2018-02-19T22:00:19.596Z,21.17
2018-02-19T22:02:47.387Z,21.90
2018-02-19T22:05:15.378Z,22.17
2018-02-19T22:07:43.839Z,21.40
2018-02-19T22:10:11.701Z,21.67
2018-02-19T22:12:39.392Z,22.90
2018-02-19T22:15:07.019Z,21.60
2018-02-19T22:17:34.911Z,24.37
2018-02-19T22:20:03.345Z,24.47
2018-02-19T22:22:30.997Z,22.73
2018-02-19T22:24:58.723Z,22.80
2018-02-19T22:27:27.227Z,22.33
2018-02-19T22:29:55.058Z,22.57
2018-02-19T22:32:22.703Z,22.67
2018-02-19T22:34:51.183Z,24.37
2018-02-19T22:37:23.063Z,22.87
2018-02-19T22:39:51.479Z,23.90
2018-02-19T22:42:19.118Z,21.30
2018-02-19T22:44:46.819Z,22.03
2018-02-19T22:47:15.298Z,22.83
2018-02-19T22:49:43.736Z,23.43
2018-02-19T22:52:11.361Z,23.27
2018-02-19T22:54:39.791Z,23.43
2018-02-19T22:57:07.454Z,20.37
2018-02-19T22:59:35.063Z,23.50
2018-02-19T23:02:03.503Z,22.50
2018-02-19T23:04:31.898Z,21.63
2018-02-19T23:07:00.306Z,24.90
2018-02-19T23:09:27.960Z,20.97
2018-02-19T23:11:56.388Z,22.17
2018-02-19T23:14:24.023Z,24.27
2018-02-19T23:16:52.429Z,22.30
2018-02-19T23:19:20.082Z,25.43
2018-02-19T23:21:48.510Z,23.37
2018-02-19T23:24:16.152Z,22.80
2018-02-19T23:26:44.615Z,22.07
2018-02-19T23:29:12.243Z,24.20
2018-02-19T23:31:39.906Z,22.83
2018-02-19T23:34:07.536Z,23.33
2018-02-19T23:36:35.227Z,26.17
2018-02-19T23:39:02.906Z,22.60
2018-02-19T23:41:30.567Z,23.30
2018-02-19T23:43:58.212Z,22.73
2018-02-19T23:46:25.872Z,22.43
2018-02-19T23:48:53.530Z,23.67
2018-02-19T23:51:21.177Z,21.37
2018-02-19T23:53:48.784Z,21.53
2018-02-19T23:56:17.307Z,22.53
2018-02-19T23:58:44.916Z,25.50
